Time;durP1;ratioP1;P1;durP2;ratioP2;P2;SDS_P1;SDS_P2;PMS_P1;PMS_P2;Temp;Humidity;BMP_temperature;BMP_pressure;BME280_temperature;BME280_humidity;BME280_pressure;Samples;Min_cycle;Max_cycle;Signal;HPM_P1;HPM_P2
2023/04/16 00:00:54;;;;;;;;;;;;;;;;;;137530;1273;22253;-80
2023/04/16 00:04:07;;;;;;;;;;;;;;;;;;137590;1273;22259;-81
2023/04/16 00:07:08;;;;;;;;;;;;;;;;;;137545;1273;22354;-80
2023/04/16 00:10:09;;;;;;;;;;;;;;;;;;137559;1273;22244;-81
2023/04/16 00:13:10;;;;;;;;;;;;;;;;;;137551;1273;22342;-81
2023/04/16 00:16:11;;;;;;;;;;;;;;;;;;137574;1270;22222;-80
2023/04/16 00:19:12;;;;;;;;;;;;;;;;;;137553;1272;22478;-80
2023/04/16 00:22:13;;;;;;;;;;;;;;;;;;137545;1273;22221;-81
2023/04/16 00:25:14;;;;;;;;;;;;;;;;;;137618;1273;22190;-81
2023/04/16 00:28:15;;;;;;;;;;;;;;;;;;137557;1272;22272;-79
2023/04/16 00:31:16;;;;;;;;;;;;;;;;;;137578;1258;22206;-80
2023/04/16 00:34:17;;;;;;;;;;;;;;;;;;137588;1273;22271;-80
2023/04/16 00:37:18;;;;;;;;;;;;;;;;;;137557;1270;22412;-80
2023/04/16 00:40:19;;;;;;;;;;;;;;;;;;137560;1269;22682;-81
2023/04/16 00:43:20;;;;;;;;;;;;;;;;;;137544;1273;22289;-81
2023/04/16 00:46:21;;;;;;;;;;;;;;;;;;137545;1273;22191;-80
2023/04/16 00:49:22;;;;;;;;;;;;;;;;;;137567;1273;22793;-80
2023/04/16 00:52:24;;;;;;;;;;;;;;;;;;137573;1273;22207;-80
2023/04/16 00:55:25;;;;;;;;;;;;;;;;;;137582;1273;22814;-81
2023/04/16 00:58:26;;;;;;;;;;;;;;;;;;137562;1272;22293;-80
2023/04/16 01:01:27;;;;;;;;;;;;;;;;;;137602;1273;22188;-81
2023/04/16 01:04:29;;;;;;;;;;;;;;;;;;137580;1273;22285;-81
2023/04/16 01:07:30;;;;;;;;;;;;;;;;;;137596;1273;22364;-80
2023/04/16 01:10:31;;;;;;;;;;;;;;;;;;137572;1273;22314;-81
2023/04/16 01:13:32;;;;;;;;;;;;;;;;;;137554;1272;22298;-81
2023/04/16 01:16:33;;;;;;;;;;;;;;;;;;137601;1273;22270;-81
2023/04/16 01:19:35;;;;;;;;;;;;;;;;;;137596;1272;22390;-81
2023/04/16 01:22:36;;;;;;;;;;;;;;;;;;137569;1273;22311;-81
2023/04/16 01:25:37;;;;;;;;;;;;;;;;;;137587;1273;22187;-80
2023/04/16 01:28:38;;;;;;;;;;;;;;;;;;137568;1273;22220;-81
2023/04/16 01:31:39;;;;;;;;;;;;;;;;;;137604;1273;22183;-81
2023/04/16 01:34:40;;;;;;;;;;;;;;;;;;137593;1273;22189;-81
2023/04/16 01:37:41;;;;;;;;;;;;;;;;;;137568;1273;22357;-81
2023/04/16 01:40:42;;;;;;;;;;;;;;;;;;137574;1273;23132;-81
2023/04/16 01:43:43;;;;;;;;;;;;;;;;;;137566;1272;22889;-80
2023/04/16 01:46:44;;;;;;;;;;;;;;;;;;137554;1273;22203;-80
2023/04/16 01:49:47;;;;;;;;;;;;;;;;;;137573;1273;22623;-80
2023/04/16 01:52:48;;;;;;;;;;;;;;;;;;137594;1273;22284;-80
2023/04/16 01:55:49;;;;;;;;;;;;;;;;;;137553;1273;22524;-81
2023/04/16 01:58:50;;;;;;;;;;;;;;;;;;137568;1273;22754;-81
2023/04/16 02:01:51;;;;;;;;;;;;;;;;;;137593;1273;22280;-81
2023/04/16 02:04:52;;;;;;;;;;;;;;;;;;137561;1273;22191;-81
2023/04/16 02:07:53;;;;;;;;;;;;;;;;;;137578;1273;22997;-81
2023/04/16 02:10:54;;;;;;;;;;;;;;;;;;137584;1273;22205;-81
2023/04/16 02:13:55;;;;;;;;;;;;;;;;;;137589;1272;22294;-80
2023/04/16 02:16:56;;;;;;;;;;;;;;;;;;137571;1273;22263;-80
2023/04/16 02:19:57;;;;;;;;;;;;;;;;;;137565;1273;22287;-81
2023/04/16 02:22:58;;;;;;;;;;;;;;;;;;137557;1273;22297;-80
2023/04/16 02:26:00;;;;;;;;;;;;;;;;;;137549;1268;22265;-79
2023/04/16 02:29:01;;;;;;;;;;;;;;;;;;137570;1273;22173;-81
2023/04/16 02:32:02;;;;;;;;;;;;;;;;;;137591;1273;22278;-81
2023/04/16 02:35:03;;;;;;;;;;;;;;;;;;137560;1273;22681;-80
2023/04/16 02:38:04;;;;;;;;;;;;;;;;;;137575;1273;22689;-81
2023/04/16 02:41:05;;;;;;;;;;;;;;;;;;137584;1272;22768;-81
2023/04/16 02:44:06;;;;;;;;;;;;;;;;;;137592;1273;22268;-81
2023/04/16 02:47:07;;;;;;;;;;;;;;;;;;137557;1273;22325;-80
2023/04/16 02:50:08;;;;;;;;;;;;;;;;;;137536;1273;22287;-81
2023/04/16 02:53:10;;;;;;;;;;;;;;;;;;137541;1273;22170;-81
2023/04/16 02:56:11;;;;;;;;;;;;;;;;;;137558;1272;22271;-80
2023/04/16 02:59:12;;;;;;;;;;;;;;;;;;137554;1268;22225;-80
2023/04/16 03:02:13;;;;;;;;;;;;;;;;;;137602;1273;22293;-80
2023/04/16 03:05:14;;;;;;;;;;;;;;;;;;137570;1273;22259;-80
2023/04/16 03:08:15;;;;;;;;;;;;;;;;;;137526;1273;22783;-78
2023/04/16 03:11:16;;;;;;;;;;;;;;;;;;137558;1273;22208;-78
2023/04/16 03:14:17;;;;;;;;;;;;;;;;;;137579;1273;22279;-79
2023/04/16 03:17:18;;;;;;;;;;;;;;;;;;137546;1273;22284;-79
2023/04/16 03:20:19;;;;;;;;;;;;;;;;;;137564;1273;22211;-79
2023/04/16 03:23:20;;;;;;;;;;;;;;;;;;137604;1273;22561;-80
2023/04/16 03:26:21;;;;;;;;;;;;;;;;;;137600;1273;22384;-79
2023/04/16 03:29:22;;;;;;;;;;;;;;;;;;137604;1273;22267;-79
2023/04/16 03:32:23;;;;;;;;;;;;;;;;;;137576;1273;22283;-79
2023/04/16 03:35:24;;;;;;;;;;;;;;;;;;137591;1273;22280;-79
2023/04/16 03:38:25;;;;;;;;;;;;;;;;;;137576;1273;22384;-79
2023/04/16 03:41:29;;;;;;;;;;;;;;;;;;137591;1273;22515;-79
2023/04/16 03:44:32;;;;;;;;;;;;;;;;;;137603;1273;22274;-79
2023/04/16 03:47:33;;;;;;;;;;;;;;;;;;137608;1272;22210;-79
2023/04/16 03:50:34;;;;;;;;;;;;;;;;;;137604;1273;22272;-79
2023/04/16 03:53:35;;;;;;;;;;;;;;;;;;137619;1273;22297;-78
2023/04/16 03:56:36;;;;;;;;;;;;;;;;;;137593;1273;22646;-79
2023/04/16 03:59:37;;;;;;;;;;;;;;;;;;137585;1272;22312;-79
2023/04/16 04:02:38;;;;;;;;;;;;;;;;;;137619;1273;22263;-79
2023/04/16 04:05:39;;;;;;;;;;;;;;;;;;137605;1273;22517;-79
2023/04/16 04:08:40;;;;;;;;;;;;;;;;;;137647;1273;22316;-80
2023/04/16 04:11:41;;;;;;;;;;;;;;;;;;137579;1273;22386;-80
2023/04/16 04:14:43;;;;;;;;;;;;;;;;;;137609;1273;22294;-80
2023/04/16 04:17:44;;;;;;;;;;;;;;;;;;137641;1273;22265;-80
2023/04/16 04:20:45;;;;;;;;;;;;;;;;;;137621;1272;22289;-79
2023/04/16 04:23:46;;;;;;;;;;;;;;;;;;137623;1273;22404;-79
2023/04/16 04:26:47;;;;;;;;;;;;;;;;;;137630;1273;22291;-79
2023/04/16 04:29:48;;;;;;;;;;;;;;;;;;137621;1273;22172;-79
2023/04/16 04:32:49;;;;;;;;;;;;;;;;;;137608;1273;22261;-79
2023/04/16 04:35:50;;;;;;;;;;;;;;;;;;137566;1273;22416;-79
2023/04/16 04:38:51;;;;;;;;;;;;;;;;;;137557;1273;22292;-79
2023/04/16 04:41:52;;;;;;;;;;;;;;;;;;137621;1273;22764;-80
2023/04/16 04:44:53;;;;;;;;;;;;;;;;;;137557;1273;22222;-79
2023/04/16 04:47:54;;;;;;;;;;;;;;;;;;137577;1272;22769;-79
2023/04/16 04:50:55;;;;;;;;;;;;;;;;;;137614;1273;22304;-82
2023/04/16 04:53:56;;;;;;;;;;;;;;;;;;137638;1273;22216;-81
2023/04/16 04:56:57;;;;;;;;;;;;;;;;;;137593;1273;22752;-81
2023/04/16 04:59:58;;;;;;;;;;;;;;;;;;137605;1273;22299;-81
2023/04/16 05:02:59;;;;;;;;;;;;;;;;;;137628;1273;22334;-80
2023/04/16 05:06:00;;;;;;;;;;;;;;;;;;137606;1273;22381;-80
2023/04/16 05:09:02;;;;;;;;;;;;;;;;;;137666;1273;23072;-80
2023/04/16 05:12:03;;;;;;;;;;;;;;;;;;137608;1273;22209;-79
2023/04/16 05:15:04;;;;;;;;;;;;;;;;;;137589;1273;22721;-80
2023/04/16 05:18:05;;;;;;;;;;;;;;;;;;137639;1273;22272;-82
2023/04/16 05:21:06;;;;;;;;;;;;;;;;;;137712;1273;22698;-82
2023/04/16 05:24:07;;;;;;;;;;;;;;;;;;137708;1273;22297;-82
2023/04/16 05:27:09;;;;;;;;;;;;;;;;;;137642;1273;22325;-82
2023/04/16 05:30:10;;;;;;;;;;;;;;;;;;137696;1270;22690;-81
2023/04/16 05:33:11;;;;;;;;;;;;;;;;;;137649;1273;22630;-81
2023/04/16 05:36:12;;;;;;;;;;;;;;;;;;137663;1273;22370;-82
2023/04/16 05:39:13;;;;;;;;;;;;;;;;;;137650;1273;22361;-81
2023/04/16 05:42:14;;;;;;;;;;;;;;;;;;137669;1273;22819;-81
2023/04/16 05:45:15;;;;;;;;;;;;;;;;;;137692;1273;22283;-82
2023/04/16 05:48:16;;;;;;;;;;;;;;;;;;137650;1273;22228;-82
2023/04/16 05:51:17;;;;;;;;;;;;;;;;;;137664;1273;22314;-82
2023/04/16 05:54:18;;;;;;;;;;;;;;;;;;137660;1273;22268;-82
2023/04/16 05:57:19;;;;;;;;;;;;;;;;;;137602;1270;22554;-81
2023/04/16 06:00:20;;;;;;;;;;;;;;;;;;137659;1273;22292;-82
2023/04/16 06:03:21;;;;;;;;;;;;;;;;;;137641;1273;22628;-82
2023/04/16 06:06:23;;;;;;;;;;;;;;;;;;137655;1273;22442;-81
2023/04/16 06:09:24;;;;;;;;;;;;;;;;;;137646;1273;22417;-81
2023/04/16 06:12:25;;;;;;;;;;;;;;;;;;137662;1273;22748;-81
2023/04/16 06:15:26;;;;;;;;;;;;;;;;;;137669;1273;22202;-81
2023/04/16 06:18:27;;;;;;;;;;;;;;;;;;137625;1273;22291;-80
2023/04/16 06:21:28;;;;;;;;;;;;;;;;;;137668;1273;22291;-81
2023/04/16 06:24:29;;;;;;;;;;;;;;;;;;137632;1273;22259;-80
2023/04/16 06:27:30;;;;;;;;;;;;;;;;;;137646;1273;22411;-80
2023/04/16 06:30:31;;;;;;;;;;;;;;;;;;137679;1266;22757;-80
2023/04/16 06:33:32;;;;;;;;;;;;;;;;;;137701;1273;22296;-81
2023/04/16 06:36:33;;;;;;;;;;;;;;;;;;137571;1273;22404;-81
2023/04/16 06:39:34;;;;;;;;;;;;;;;;;;137622;1273;22257;-80
2023/04/16 06:42:35;;;;;;;;;;;;;;;;;;137632;1273;22268;-81
2023/04/16 06:45:36;;;;;;;;;;;;;;;;;;137649;1273;22247;-80
2023/04/16 06:48:37;;;;;;;;;;;;;;;;;;137674;1273;22257;-81
2023/04/16 06:51:38;;;;;;;;;;;;;;;;;;137632;1273;22188;-80
2023/04/16 06:54:39;;;;;;;;;;;;;;;;;;137630;1273;22773;-80
2023/04/16 06:57:40;;;;;;;;;;;;;;;;;;137621;1273;22258;-82
2023/04/16 07:00:42;;;;;;;;;;;;;;;;;;137674;1273;22275;-82
2023/04/16 07:03:43;;;;;;;;;;;;;;;;;;137658;1273;22230;-82
2023/04/16 07:06:44;;;;;;;;;;;;;;;;;;137650;1262;22429;-82
2023/04/16 07:09:45;;;;;;;;;;;;;;;;;;137429;1273;210367;-82
2023/04/16 07:12:46;;;;;;;;;;;;;;;;;;137680;1273;22195;-82
2023/04/16 07:15:47;;;;;;;;;;;;;;;;;;137663;1273;22329;-81
2023/04/16 07:18:48;;;;;;;;;;;;;;;;;;137639;1273;22292;-81
2023/04/16 07:21:52;;;;;;;;;;;;;;;;;;137665;1273;22269;-81
2023/04/16 07:24:53;;;;;;;;;;;;;;;;;;137641;1273;22189;-81
2023/04/16 07:27:54;;;;;;;;;;;;;;;;;;137648;1272;22547;-81
2023/04/16 07:30:55;;;;;;;;;;;;;;;;;;137659;1272;22319;-81
2023/04/16 07:33:56;;;;;;;;;;;;;;;;;;137712;1273;22267;-82
2023/04/16 07:36:57;;;;;;;;;;;;;;;;;;137706;1273;22420;-82
2023/04/16 07:39:59;;;;;;;;;;;;;;;;;;137652;1273;22201;-81
2023/04/16 07:43:00;;;;;;;;;;;;;;;;;;137674;1273;22887;-82
2023/04/16 07:46:01;;;;;;;;;;;;;;;;;;137658;1273;22172;-81
2023/04/16 07:49:02;;;;;;;;;;;;;;;;;;137694;1273;22236;-81
2023/04/16 07:52:03;;;;;;;;;;;;;;;;;;137636;1273;22224;-81
2023/04/16 07:55:05;;;;;;;;;;;;;;;;;;137679;1273;22708;-81
2023/04/16 07:58:08;;;;;;;;;;;;;;;;;;137639;1273;22649;-81
2023/04/16 08:01:09;;;;;;;;;;;;;;;;;;137652;1273;22210;-81
2023/04/16 08:04:10;;;;;;;;;;;;;;;;;;137671;1273;22305;-81
2023/04/16 08:07:11;;;;;;;;;;;;;;;;;;137697;1273;22373;-81
2023/04/16 08:10:12;;;;;;;;;;;;;;;;;;137635;1273;22274;-82
2023/04/16 08:13:13;;;;;;;;;;;;;;;;;;137685;1273;22260;-81
2023/04/16 08:16:14;;;;;;;;;;;;;;;;;;137630;1273;22267;-81
2023/04/16 08:19:15;;;;;;;;;;;;;;;;;;137664;1270;22251;-81
2023/04/16 08:22:16;;;;;;;;;;;;;;;;;;137615;1273;22264;-80
2023/04/16 08:25:19;;;;;;;;;;;;;;;;;;137635;1273;22282;-81
2023/04/16 08:28:20;;;;;;;;;;;;;;;;;;137659;1273;22248;-81
2023/04/16 08:31:21;;;;;;;;;;;;;;;;;;137649;1273;22193;-81
2023/04/16 08:34:22;;;;;;;;;;;;;;;;;;137636;1273;22710;-81
2023/04/16 08:37:23;;;;;;;;;;;;;;;;;;137632;1273;22362;-81
2023/04/16 08:40:26;;;;;;;;;;;;;;;;;;137641;1273;22200;-81
2023/04/16 08:43:27;;;;;;;;;;;;;;;;;;137652;1273;22263;-81
2023/04/16 08:46:30;;;;;;;;;;;;;;;;;;137642;1273;22171;-81
2023/04/16 08:49:31;;;;;;;;;;;;;;;;;;137604;1273;22277;-81
2023/04/16 08:52:33;;;;;;;;;;;;;;;;;;137638;1273;22256;-81
2023/04/16 08:55:34;;;;;;;;;;;;;;;;;;137621;1273;22264;-81
2023/04/16 08:58:35;;;;;;;;;;;;;;;;;;137641;1273;22280;-81
2023/04/16 09:01:38;;;;;;;;;;;;;;;;;;137631;1273;22680;-82
2023/04/16 09:04:39;;;;;;;;;;;;;;;;;;137661;1273;22064;-81
2023/04/16 09:07:40;;;;;;;;;;;;;;;;;;137638;1273;22828;-81
2023/04/16 09:10:41;;;;;;;;;;;;;;;;;;137662;1273;22257;-80
2023/04/16 09:13:42;;;;;;;;;;;;;;;;;;137601;1273;22648;-81
2023/04/16 09:16:43;;;;;;;;;;;;;;;;;;137624;1273;22254;-82
2023/04/16 09:19:44;;;;;;;;;;;;;;;;;;137663;1273;22286;-81
2023/04/16 09:22:45;;;;;;;;;;;;;;;;;;137670;1273;22290;-81
2023/04/16 09:25:46;;;;;;;;;;;;;;;;;;137684;1273;22182;-81
2023/04/16 09:28:47;;;;;;;;;;;;;;;;;;137723;1273;22288;-81
2023/04/16 09:31:48;;;;;;;;;;;;;;;;;;137626;1273;22290;-82
2023/04/16 09:34:49;;;;;;;;;;;;;;;;;;137673;1273;22273;-81
2023/04/16 09:37:50;;;;;;;;;;;;;;;;;;137631;1273;22369;-81
2023/04/16 09:40:51;;;;;;;;;;;;;;;;;;137651;1273;22824;-81
2023/04/16 09:43:53;;;;;;;;;;;;;;;;;;137631;1273;22270;-82
2023/04/16 09:46:54;;;;;;;;;;;;;;;;;;137634;1273;22197;-82
2023/04/16 09:49:55;;;;;;;;;;;;;;;;;;137643;1273;22216;-81
2023/04/16 09:52:56;;;;;;;;;;;;;;;;;;137637;1273;22208;-83
2023/04/16 09:55:57;;;;;;;;;;;;;;;;;;137599;1273;22201;-83
2023/04/16 09:58:58;;;;;;;;;;;;;;;;;;137612;1273;22182;-83
2023/04/16 10:02:00;;;;;;;;;;;;;;;;;;137619;1273;22268;-83
2023/04/16 10:05:01;;;;;;;;;;;;;;;;;;137657;1273;22262;-83
2023/04/16 10:08:02;;;;;;;;;;;;;;;;;;137676;1269;22497;-83
2023/04/16 10:11:03;;;;;;;;;;;;;;;;;;137664;1273;22725;-84
2023/04/16 10:14:07;;;;;;;;;;;;;;;;;;137678;1273;22182;-83
2023/04/16 10:17:08;;;;;;;;;;;;;;;;;;137703;1273;22269;-84
2023/04/16 10:20:10;;;;;;;;;;;;;;;;;;137683;1269;22255;-83
2023/04/16 10:23:12;;;;;;;;;;;;;;;;;;137713;1273;22264;-83
2023/04/16 10:26:14;;;;;;;;;;;;;;;;;;137679;1273;22306;-83
2023/04/16 10:29:15;;;;;;;;;;;;;;;;;;137696;1273;22283;-83
2023/04/16 10:32:19;;;;;;;;;;;;;;;;;;137665;1273;22356;-84
2023/04/16 10:35:20;;;;;;;;;;;;;;;;;;137671;1273;22363;-84
2023/04/16 10:38:22;;;;;;;;;;;;;;;;;;137693;1273;22734;-84
2023/04/16 10:41:25;;;;;;;;;;;;;;;;;;137761;1273;22278;-83
2023/04/16 10:44:29;;;;;;;;;;;;;;;;;;137655;1273;22423;-83
2023/04/16 10:47:44;;;;;;;;;;;;;;;;;;137656;1273;22441;-83
2023/04/16 10:50:45;;;;;;;;;;;;;;;;;;137681;1273;22867;-83
2023/04/16 10:53:49;;;;;;;;;;;;;;;;;;137682;1273;22620;-84
2023/04/16 10:56:51;;;;;;;;;;;;;;;;;;137695;1273;22673;-84
2023/04/16 11:00:06;;;;;;;;;;;;;;;;;;137683;1273;22248;-83
2023/04/16 11:03:07;;;;;;;;;;;;;;;;;;137662;1273;22308;-84
2023/04/16 11:06:09;;;;;;;;;;;;;;;;;;137605;1273;22439;-84
2023/04/16 11:09:20;;;;;;;;;;;;;;;;;;;;;
2023/04/16 11:12:26;;;;;;;;;;;;;;;;;;137689;1272;22258;-84
2023/04/16 11:15:32;;;;;;;;;;;;;;;;;;137672;1273;22302;-84
2023/04/16 11:18:34;;;;;;;;;;;;;;;;;;137696;1273;22207;-83
2023/04/16 11:21:39;;;;;;;;;;;;;;;;;;137672;1273;22414;-83
2023/04/16 11:24:40;;;;;;;;;;;;;;;;;;137678;1273;22310;-84
2023/04/16 11:27:41;;;;;;;;;;;;;;;;;;137639;1273;22304;-85
2023/04/16 11:30:43;;;;;;;;;;;;;;;;;;137692;1273;22667;-84
2023/04/16 11:33:44;;;;;;;;;;;;;;;;;;137606;1273;22402;-84
2023/04/16 11:36:45;;;;;;;;;;;;;;;;;;137596;1273;22835;-83
2023/04/16 11:39:49;;;;;;;;;;;;;;;;;;137646;1273;22303;-84
2023/04/16 11:42:52;;;;;;;;;;;;;;;;;;137609;1273;22300;-82
2023/04/16 11:45:55;;;;;;;;;;;;;;;;;;137658;1273;22258;-82
2023/04/16 11:48:57;;;;;;;;;;;;;;;;;;137648;1273;22279;-82
2023/04/16 11:51:58;;;;;;;;;;;;;;;;;;137643;1273;22192;-82
2023/04/16 11:54:59;;;;;;;;;;;;;;;;;;137643;1273;22208;-81
2023/04/16 11:58:01;;;;;;;;;;;;;;;;;;137659;1273;22207;-82
2023/04/16 12:01:03;;;;;;;;;;;;;;;;;;137597;1273;22272;-82
2023/04/16 12:04:07;;;;;;;;;;;;;;;;;;137608;1273;22250;-82
2023/04/16 12:07:08;;;;;;;;;;;;;;;;;;137567;1273;22414;-81
2023/04/16 12:10:09;;;;;;;;;;;;;;;;;;137592;1273;22828;-81
2023/04/16 12:13:11;;;;;;;;;;;;;;;;;;137601;1273;22822;-82
2023/04/16 12:16:12;;;;;;;;;;;;;;;;;;137639;1273;22303;-82
2023/04/16 12:19:16;;;;;;;;;;;;;;;;;;137684;1273;22323;-82
2023/04/16 12:22:17;;;;;;;;;;;;;;;;;;137635;1273;22341;-82
2023/04/16 12:25:18;;;;;;;;;;;;;;;;;;137652;1273;22295;-82
2023/04/16 12:28:21;;;;;;;;;;;;;;;;;;137640;1273;22261;-82
2023/04/16 12:31:22;;;;;;;;;;;;;;;;;;137607;1273;22328;-82
2023/04/16 12:34:23;;;;;;;;;;;;;;;;;;137677;1273;23010;-82
2023/04/16 12:37:25;;;;;;;;;;;;;;;;;;137704;1273;22427;-82
2023/04/16 12:40:26;;;;;;;;;;;;;;;;;;137622;1269;22301;-82
2023/04/16 12:43:28;;;;;;;;;;;;;;;;;;137566;1273;22288;-83
2023/04/16 12:46:29;;;;;;;;;;;;;;;;;;137603;1273;22468;-82
2023/04/16 12:49:30;;;;;;;;;;;;;;;;;;137603;1273;22717;-82
2023/04/16 12:52:31;;;;;;;;;;;;;;;;;;137584;1273;22361;-82
2023/04/16 12:55:33;;;;;;;;;;;;;;;;;;137625;1273;22884;-82
2023/04/16 12:58:37;;;;;;;;;;;;;;;;;;137578;1273;22316;-83
2023/04/16 13:01:38;;;;;;;;;;;;;;;;;;137585;1273;22420;-82
2023/04/16 13:04:40;;;;;;;;;;;;;;;;;;137595;1273;22229;-83
2023/04/16 13:07:44;;;;;;;;;;;;;;;;;;137614;1273;22408;-83
2023/04/16 13:10:47;;;;;;;;;;;;;;;;;;137663;1273;22261;-82
2023/04/16 13:13:48;;;;;;;;;;;;;;;;;;137610;1273;22233;-82
2023/04/16 13:16:49;;;;;;;;;;;;;;;;;;137651;1273;22364;-82
2023/04/16 13:19:50;;;;;;;;;;;;;;;;;;137610;1273;22280;-83
2023/04/16 13:22:52;;;;;;;;;;;;;;;;;;137601;1273;22342;-83
2023/04/16 13:25:55;;;;;;;;;;;;;;;;;;137677;1272;22395;-82
2023/04/16 13:28:56;;;;;;;;;;;;;;;;;;137605;1273;22270;-82
2023/04/16 13:31:58;;;;;;;;;;;;;;;;;;137606;1273;22329;-82
2023/04/16 13:35:00;;;;;;;;;;;;;;;;;;137615;1273;22238;-82
2023/04/16 13:38:02;;;;;;;;;;;;;;;;;;137633;1267;22458;-82
2023/04/16 13:41:05;;;;;;;;;;;;;;;;;;137611;1273;22202;-82
2023/04/16 13:44:06;;;;;;;;;;;;;;;;;;137647;1273;22316;-84
2023/04/16 13:47:11;;;;;;;;;;;;;;;;;;137637;1273;22691;-83
2023/04/16 13:50:12;;;;;;;;;;;;;;;;;;137601;1273;22211;-83
2023/04/16 13:53:13;;;;;;;;;;;;;;;;;;137617;1273;22278;-83
2023/04/16 13:56:15;;;;;;;;;;;;;;;;;;137603;1273;22282;-82
2023/04/16 13:59:16;;;;;;;;;;;;;;;;;;137589;1273;22404;-83
2023/04/16 14:02:17;;;;;;;;;;;;;;;;;;137648;1273;22306;-84
2023/04/16 14:05:22;;;;;;;;;;;;;;;;;;137652;1268;22269;-83
2023/04/16 14:08:23;;;;;;;;;;;;;;;;;;137679;1273;22513;-83
2023/04/16 14:11:25;;;;;;;;;;;;;;;;;;137622;1273;22273;-83
2023/04/16 14:14:26;;;;;;;;;;;;;;;;;;137627;1273;22265;-81
2023/04/16 14:17:32;;;;;;;;;;;;;;;;;;137651;1273;22844;-82
2023/04/16 14:20:38;;;;;;;;;;;;;;;;;;137668;1273;22274;-82
2023/04/16 14:23:42;;;;;;;;;;;;;;;;;;137655;1273;22880;-83
2023/04/16 14:26:44;;;;;;;;;;;;;;;;;;137606;1273;22452;-83
2023/04/16 14:29:46;;;;;;;;;;;;;;;;;;137635;1273;22304;-82
2023/04/16 14:32:47;;;;;;;;;;;;;;;;;;137610;1273;22892;-84
2023/04/16 14:35:53;;;;;;;;;;;;;;;;;;137535;1273;22424;-82
2023/04/16 14:38:55;;;;;;;;;;;;;;;;;;137616;1273;22237;-83
2023/04/16 14:41:58;;;;;;;;;;;;;;;;;;137658;1273;22665;-82
2023/04/16 14:45:06;;;;;;;;;;;;;;;;;;137618;1273;22257;-83
2023/04/16 14:48:13;;;;;;;;;;;;;;;;;;137609;1273;22643;-83
2023/04/16 14:51:17;;;;;;;;;;;;;;;;;;137577;1273;22377;-82
2023/04/16 14:54:19;;;;;;;;;;;;;;;;;;137642;1273;22279;-83
2023/04/16 14:57:20;;;;;;;;;;;;;;;;;;137607;1273;22284;-82
2023/04/16 15:00:21;;;;;;;;;;;;;;;;;;137613;1273;22213;-83
2023/04/16 15:03:22;;;;;;;;;;;;;;;;;;137630;1273;22276;-82
2023/04/16 15:06:24;;;;;;;;;;;;;;;;;;137503;1273;22409;-83
2023/04/16 15:09:25;;;;;;;;;;;;;;;;;;137602;1273;22425;-83
2023/04/16 15:12:27;;;;;;;;;;;;;;;;;;137601;1273;22273;-83
2023/04/16 15:15:28;;;;;;;;;;;;;;;;;;137581;1272;22366;-83
2023/04/16 15:18:29;;;;;;;;;;;;;;;;;;137614;1273;22312;-83
2023/04/16 15:21:30;;;;;;;;;;;;;;;;;;137607;1273;22324;-82
2023/04/16 15:24:31;;;;;;;;;;;;;;;;;;137646;1273;22295;-83
2023/04/16 15:27:32;;;;;;;;;;;;;;;;;;137578;1273;22288;-83
2023/04/16 15:30:34;;;;;;;;;;;;;;;;;;137584;1273;22260;-83
2023/04/16 15:33:35;;;;;;;;;;;;;;;;;;137579;1272;22256;-82
2023/04/16 15:36:36;;;;;;;;;;;;;;;;;;137580;1273;22395;-83
2023/04/16 15:39:38;;;;;;;;;;;;;;;;;;137608;1273;22261;-81
2023/04/16 15:42:40;;;;;;;;;;;;;;;;;;137640;1273;22241;-82
2023/04/16 15:45:41;;;;;;;;;;;;;;;;;;137649;1273;22230;-82
2023/04/16 15:48:42;;;;;;;;;;;;;;;;;;137614;1273;22223;-82
2023/04/16 15:51:43;;;;;;;;;;;;;;;;;;137606;1273;22299;-82
2023/04/16 15:54:44;;;;;;;;;;;;;;;;;;137639;1273;22235;-82
2023/04/16 15:57:45;;;;;;;;;;;;;;;;;;137602;1273;22223;-82
2023/04/16 16:00:48;;;;;;;;;;;;;;;;;;137658;1273;22264;-82
2023/04/16 16:03:50;;;;;;;;;;;;;;;;;;137568;1273;22259;-82
2023/04/16 16:06:51;;;;;;;;;;;;;;;;;;137584;1273;22449;-82
2023/04/16 16:09:52;;;;;;;;;;;;;;;;;;137600;1273;22268;-82
2023/04/16 16:12:53;;;;;;;;;;;;;;;;;;137642;1273;22901;-80
2023/04/16 16:15:54;;;;;;;;;;;;;;;;;;137631;1273;22197;-82
2023/04/16 16:18:55;;;;;;;;;;;;;;;;;;137583;1273;22324;-83
2023/04/16 16:21:56;;;;;;;;;;;;;;;;;;137570;1273;22299;-83
2023/04/16 16:24:58;;;;;;;;;;;;;;;;;;137581;1273;22271;-82
2023/04/16 16:27:59;;;;;;;;;;;;;;;;;;137576;1273;22211;-83
2023/04/16 16:31:00;;;;;;;;;;;;;;;;;;137594;1273;22283;-82
2023/04/16 16:34:01;;;;;;;;;;;;;;;;;;137593;1273;22751;-82
2023/04/16 16:37:03;;;;;;;;;;;;;;;;;;137560;1273;22850;-83
2023/04/16 16:40:04;;;;;;;;;;;;;;;;;;137618;1273;22248;-82
2023/04/16 16:43:05;;;;;;;;;;;;;;;;;;137591;1273;22936;-83
2023/04/16 16:46:06;;;;;;;;;;;;;;;;;;137569;1273;22262;-83
2023/04/16 16:49:08;;;;;;;;;;;;;;;;;;137597;1272;22210;-83
2023/04/16 16:52:09;;;;;;;;;;;;;;;;;;137582;1273;22756;-83
2023/04/16 16:55:10;;;;;;;;;;;;;;;;;;137563;1273;22548;-82
2023/04/16 16:58:12;;;;;;;;;;;;;;;;;;137598;1273;22305;-81
2023/04/16 17:01:13;;;;;;;;;;;;;;;;;;137642;1272;22879;-81
2023/04/16 17:04:14;;;;;;;;;;;;;;;;;;137622;1266;22319;-82
2023/04/16 17:07:15;;;;;;;;;;;;;;;;;;137600;1273;22851;-81
2023/04/16 17:10:19;;;;;;;;;;;;;;;;;;137576;1273;22273;-82
2023/04/16 17:13:20;;;;;;;;;;;;;;;;;;137574;1273;22742;-82
2023/04/16 17:16:22;;;;;;;;;;;;;;;;;;137630;1273;22264;-82
2023/04/16 17:19:26;;;;;;;;;;;;;;;;;;137561;1272;22311;-82
2023/04/16 17:22:27;;;;;;;;;;;;;;;;;;137613;1272;22275;-82
2023/04/16 17:25:29;;;;;;;;;;;;;;;;;;137594;1273;22203;-81
2023/04/16 17:28:30;;;;;;;;;;;;;;;;;;137569;1273;22297;-82
2023/04/16 17:31:32;;;;;;;;;;;;;;;;;;137587;1273;22657;-82
2023/04/16 17:34:33;;;;;;;;;;;;;;;;;;137609;1273;22284;-83
2023/04/16 17:37:34;;;;;;;;;;;;;;;;;;137567;1273;22414;-82
2023/04/16 17:40:35;;;;;;;;;;;;;;;;;;137594;1272;22634;-83
2023/04/16 17:43:37;;;;;;;;;;;;;;;;;;137592;1273;22261;-83
2023/04/16 17:46:41;;;;;;;;;;;;;;;;;;137559;1273;22377;-82
2023/04/16 17:49:45;;;;;;;;;;;;;;;;;;137572;1273;22872;-83
2023/04/16 17:52:46;;;;;;;;;;;;;;;;;;137592;1273;22190;-82
2023/04/16 17:55:47;;;;;;;;;;;;;;;;;;137593;1273;22323;-83
2023/04/16 17:58:49;;;;;;;;;;;;;;;;;;137578;1273;22716;-82
2023/04/16 18:01:50;;;;;;;;;;;;;;;;;;137583;1272;22473;-82
2023/04/16 18:04:51;;;;;;;;;;;;;;;;;;137579;1273;22379;-82
2023/04/16 18:07:54;;;;;;;;;;;;;;;;;;137588;1273;22385;-82
2023/04/16 18:10:55;;;;;;;;;;;;;;;;;;137626;1273;22236;-83
2023/04/16 18:13:57;;;;;;;;;;;;;;;;;;137592;1273;22728;-82
2023/04/16 18:17:00;;;;;;;;;;;;;;;;;;137613;1273;22217;-82
2023/04/16 18:20:04;;;;;;;;;;;;;;;;;;137606;1273;22292;-82
2023/04/16 18:23:05;;;;;;;;;;;;;;;;;;137620;1273;22284;-82
2023/04/16 18:26:07;;;;;;;;;;;;;;;;;;137615;1273;22287;-82
2023/04/16 18:29:08;;;;;;;;;;;;;;;;;;137588;1272;22690;-81
2023/04/16 18:32:09;;;;;;;;;;;;;;;;;;137631;1273;22287;-82
2023/04/16 18:35:10;;;;;;;;;;;;;;;;;;137610;1273;22433;-82
2023/04/16 18:38:12;;;;;;;;;;;;;;;;;;137613;1267;22406;-83
2023/04/16 18:41:13;;;;;;;;;;;;;;;;;;137621;1273;22279;-82
2023/04/16 18:44:16;;;;;;;;;;;;;;;;;;137650;1273;22414;-82
2023/04/16 18:47:20;;;;;;;;;;;;;;;;;;137633;1273;22953;-81
2023/04/16 18:50:21;;;;;;;;;;;;;;;;;;137617;1273;22310;-82
2023/04/16 18:53:22;;;;;;;;;;;;;;;;;;137601;1273;22365;-81
2023/04/16 18:56:24;;;;;;;;;;;;;;;;;;137622;1273;22283;-80
2023/04/16 18:59:25;;;;;;;;;;;;;;;;;;137641;1273;22260;-80
2023/04/16 19:02:26;;;;;;;;;;;;;;;;;;137636;1273;22177;-80
2023/04/16 19:05:27;;;;;;;;;;;;;;;;;;137629;1273;22346;-81
2023/04/16 19:08:29;;;;;;;;;;;;;;;;;;137636;1273;22346;-81
2023/04/16 19:11:30;;;;;;;;;;;;;;;;;;133468;1273;5463537;-81
2023/04/16 19:14:32;;;;;;;;;;;;;;;;;;137608;1273;22284;-81
2023/04/16 19:17:33;;;;;;;;;;;;;;;;;;137631;1273;22781;-81
2023/04/16 19:20:34;;;;;;;;;;;;;;;;;;137612;1273;22331;-81
2023/04/16 19:23:36;;;;;;;;;;;;;;;;;;137600;1273;22180;-81
2023/04/16 19:26:37;;;;;;;;;;;;;;;;;;137651;1273;22799;-81
2023/04/16 19:29:42;;;;;;;;;;;;;;;;;;137594;1273;22347;-81
2023/04/16 19:32:43;;;;;;;;;;;;;;;;;;137638;1273;22289;-81
2023/04/16 19:35:45;;;;;;;;;;;;;;;;;;137621;1272;22411;-81
2023/04/16 19:38:46;;;;;;;;;;;;;;;;;;137657;1273;22553;-80
2023/04/16 19:41:48;;;;;;;;;;;;;;;;;;137632;1273;22294;-81
2023/04/16 19:44:59;;;;;;;;;;;;;;;;;;137623;1273;22250;-81
2023/04/16 19:48:00;;;;;;;;;;;;;;;;;;137638;1272;22817;-81
2023/04/16 19:51:02;;;;;;;;;;;;;;;;;;137640;1273;22296;-81
2023/04/16 19:54:04;;;;;;;;;;;;;;;;;;137634;1273;22210;-80
2023/04/16 19:57:09;;;;;;;;;;;;;;;;;;137594;1273;22217;-81
2023/04/16 20:00:14;;;;;;;;;;;;;;;;;;137674;1273;22232;-81
2023/04/16 20:03:15;;;;;;;;;;;;;;;;;;137680;1273;22247;-80
2023/04/16 20:06:16;;;;;;;;;;;;;;;;;;137647;1273;22408;-80
2023/04/16 20:09:19;;;;;;;;;;;;;;;;;;137588;1273;22321;-82
2023/04/16 20:12:20;;;;;;;;;;;;;;;;;;137690;1273;22283;-80
2023/04/16 20:15:21;;;;;;;;;;;;;;;;;;137689;1273;22316;-80
2023/04/16 20:18:22;;;;;;;;;;;;;;;;;;137600;1273;22179;-80